Time;durP1;ratioP1;P1;durP2;ratioP2;P2;SDS_P1;SDS_P2;PMS_P1;PMS_P2;Temp;Humidity;BMP_temperature;BMP_pressure;BME280_temperature;BME280_humidity;BME280_pressure;Samples;Min_cycle;Max_cycle;Signal;HPM_P1;HPM_P2
2021/01/06 00:00:39;;;;;;;;;;;1.20;99.90;;;;;;2044963;29;20013;-71
2021/01/06 00:01:39;;;;;;;;;;;1.20;99.90;;;;;;2037988;29;19959;-70
2021/01/06 00:02:41;;;;;;;;;;;1.20;99.90;;;;;;2038486;29;19937;-70
2021/01/06 00:03:41;;;;;;;;;;;1.30;99.90;;;;;;2040150;29;20488;-71
2021/01/06 00:04:42;;;;;;;;;;;1.30;99.90;;;;;;2045525;29;20011;-71
2021/01/06 00:05:43;;;;;;;;;;;1.30;99.90;;;;;;2047393;29;19906;-72
2021/01/06 00:06:43;;;;;;;;;;;1.30;99.90;;;;;;2047818;29;19906;-71
2021/01/06 00:07:44;;;;;;;;;;;1.30;99.90;;;;;;2043086;29;20309;-72
2021/01/06 00:08:45;;;;;;;;;;;1.40;99.90;;;;;;2042720;29;20364;-72
2021/01/06 00:09:45;;;;;;;;;;;1.40;99.90;;;;;;2036689;29;19990;-71
2021/01/06 00:10:49;;;;;;;;;;;1.40;99.90;;;;;;2040797;29;19910;-70
2021/01/06 00:11:50;;;;;;;;;;;1.40;99.90;;;;;;2041402;29;19932;-71
2021/01/06 00:12:51;;;;;;;;;;;1.40;99.90;;;;;;2047437;29;19997;-73
2021/01/06 00:13:51;;;;;;;;;;;1.50;99.90;;;;;;2040311;29;19917;-70
2021/01/06 00:14:52;;;;;;;;;;;1.50;99.90;;;;;;2047198;28;20465;-71
2021/01/06 00:15:53;;;;;;;;;;;1.50;99.90;;;;;;2040327;29;19906;-70
2021/01/06 00:16:55;;;;;;;;;;;1.50;99.90;;;;;;2039239;29;20291;-70
2021/01/06 00:17:55;;;;;;;;;;;1.50;99.90;;;;;;2048522;28;20345;-71
2021/01/06 00:18:56;;;;;;;;;;;1.50;99.90;;;;;;2043851;28;19907;-71
2021/01/06 00:19:56;;;;;;;;;;;1.50;99.90;;;;;;2049360;28;19916;-71
2021/01/06 00:20:57;;;;;;;;;;;1.50;99.90;;;;;;2049608;28;19961;-72
2021/01/06 00:21:57;;;;;;;;;;;1.60;99.90;;;;;;2049273;29;19917;-70
2021/01/06 00:22:58;;;;;;;;;;;1.50;99.90;;;;;;2049745;29;19911;-71
2021/01/06 00:24:01;;;;;;;;;;;1.60;99.90;;;;;;2047183;29;19910;-71
2021/01/06 00:25:03;;;;;;;;;;;1.60;99.90;;;;;;2034255;29;19907;-71
2021/01/06 00:26:03;;;;;;;;;;;1.60;99.90;;;;;;2040120;29;19950;-71
2021/01/06 00:27:05;;;;;;;;;;;1.60;99.90;;;;;;2041371;29;19906;-72
2021/01/06 00:28:05;;;;;;;;;;;1.60;99.90;;;;;;2042070;29;19953;-70
2021/01/06 00:29:12;;;;;;;;;;;1.60;99.90;;;;;;2038424;29;20391;-70
2021/01/06 00:30:18;;;;;;;;;;;1.60;99.90;;;;;;2050847;28;19996;-73
2021/01/06 00:31:18;;;;;;;;;;;1.60;99.90;;;;;;2050866;28;19910;-72
2021/01/06 00:32:19;;;;;;;;;;;1.60;99.90;;;;;;2048924;29;19906;-71
2021/01/06 00:33:21;;;;;;;;;;;1.60;99.90;;;;;;2041601;29;19957;-71
2021/01/06 00:34:22;;;;;;;;;;;1.60;99.90;;;;;;2048894;28;19997;-71
2021/01/06 00:35:23;;;;;;;;;;;1.60;99.90;;;;;;2055565;28;19914;-72
2021/01/06 00:36:23;;;;;;;;;;;1.60;99.90;;;;;;2051001;28;19907;-71
2021/01/06 00:37:24;;;;;;;;;;;1.60;99.90;;;;;;2049096;28;20425;-71
2021/01/06 00:38:26;;;;;;;;;;;1.60;99.90;;;;;;2049603;29;20414;-72
2021/01/06 00:39:26;;;;;;;;;;;1.60;99.90;;;;;;2049417;29;20299;-72
2021/01/06 00:40:28;;;;;;;;;;;1.70;99.90;;;;;;2041284;29;19914;-72
2021/01/06 00:41:30;;;;;;;;;;;1.70;99.90;;;;;;2052803;28;20374;-72
2021/01/06 00:42:30;;;;;;;;;;;1.70;99.90;;;;;;2056611;28;19906;-75
2021/01/06 00:43:31;;;;;;;;;;;1.70;99.90;;;;;;2042829;29;20014;-72
2021/01/06 00:44:32;;;;;;;;;;;1.70;99.90;;;;;;2041737;29;19913;-72
2021/01/06 00:45:33;;;;;;;;;;;1.70;99.90;;;;;;2049842;29;19913;-72
2021/01/06 00:46:34;;;;;;;;;;;1.80;99.90;;;;;;2045353;29;19963;-72
2021/01/06 00:47:35;;;;;;;;;;;1.80;99.90;;;;;;2047155;29;19962;-72
2021/01/06 00:48:35;;;;;;;;;;;1.80;99.90;;;;;;2050262;28;19938;-72
2021/01/06 00:49:36;;;;;;;;;;;1.90;99.90;;;;;;2056619;28;20298;-72
2021/01/06 00:50:36;;;;;;;;;;;1.90;99.90;;;;;;2042428;29;20347;-71
2021/01/06 00:51:37;;;;;;;;;;;1.90;99.90;;;;;;2044380;29;20376;-72
2021/01/06 00:52:37;;;;;;;;;;;1.90;99.90;;;;;;2049616;29;19918;-74
2021/01/06 00:53:38;;;;;;;;;;;1.90;99.90;;;;;;2049607;28;19910;-73
2021/01/06 00:54:39;;;;;;;;;;;1.90;99.90;;;;;;2048047;28;19925;-73
2021/01/06 00:55:39;;;;;;;;;;;2.00;99.90;;;;;;2049468;28;19907;-72
2021/01/06 00:56:40;;;;;;;;;;;2.00;99.90;;;;;;2052222;28;20414;-73
2021/01/06 00:57:41;;;;;;;;;;;2.00;99.90;;;;;;2049496;29;19906;-72
2021/01/06 00:58:41;;;;;;;;;;;2.00;99.90;;;;;;2049138;29;19914;-72
2021/01/06 00:59:42;;;;;;;;;;;2.00;99.90;;;;;;2049383;29;19997;-72
2021/01/06 01:00:43;;;;;;;;;;;2.00;99.90;;;;;;2049042;29;19906;-72
2021/01/06 01:01:43;;;;;;;;;;;2.00;99.90;;;;;;2049654;28;20389;-73
2021/01/06 01:02:45;;;;;;;;;;;2.00;99.90;;;;;;2047265;28;19915;-72
2021/01/06 01:03:46;;;;;;;;;;;2.00;99.90;;;;;;2048709;28;19906;-72
2021/01/06 01:04:46;;;;;;;;;;;2.00;99.90;;;;;;2053103;28;19970;-73
2021/01/06 01:05:47;;;;;;;;;;;2.00;99.90;;;;;;2049751;28;20001;-72
2021/01/06 01:06:47;;;;;;;;;;;2.00;99.90;;;;;;2048814;29;19910;-72
2021/01/06 01:07:48;;;;;;;;;;;2.10;99.90;;;;;;2049280;29;19916;-72
2021/01/06 01:08:49;;;;;;;;;;;2.10;99.90;;;;;;2049542;28;19906;-72
2021/01/06 01:09:49;;;;;;;;;;;2.10;99.90;;;;;;2049566;28;19945;-72
2021/01/06 01:10:52;;;;;;;;;;;2.10;99.90;;;;;;2048686;28;20476;-72
2021/01/06 01:11:53;;;;;;;;;;;2.10;99.90;;;;;;2038584;29;19907;-72
2021/01/06 01:12:53;;;;;;;;;;;2.10;99.90;;;;;;2052533;28;19906;-71
2021/01/06 01:13:55;;;;;;;;;;;2.10;99.90;;;;;;2052179;28;19910;-72
2021/01/06 01:14:55;;;;;;;;;;;2.10;99.90;;;;;;2048932;29;20367;-72
2021/01/06 01:15:57;;;;;;;;;;;2.10;99.90;;;;;;2040642;29;19913;-71
2021/01/06 01:16:58;;;;;;;;;;;2.20;99.90;;;;;;2040910;29;19914;-72
2021/01/06 01:17:58;;;;;;;;;;;2.20;99.90;;;;;;2049219;28;19957;-72
2021/01/06 01:18:59;;;;;;;;;;;2.10;99.90;;;;;;2045366;29;20463;-71
2021/01/06 01:19:59;;;;;;;;;;;2.20;99.90;;;;;;2048859;29;19942;-71
2021/01/06 01:21:00;;;;;;;;;;;2.20;99.90;;;;;;2035402;29;20092;-71
2021/01/06 01:22:00;;;;;;;;;;;2.20;99.90;;;;;;2049305;28;20263;-71
2021/01/06 01:23:01;;;;;;;;;;;2.20;99.90;;;;;;2049529;28;19933;-71
2021/01/06 01:24:02;;;;;;;;;;;2.20;99.90;;;;;;2048977;28;19910;-71
2021/01/06 01:25:03;;;;;;;;;;;2.20;99.90;;;;;;2049765;28;19958;-71
2021/01/06 01:26:03;;;;;;;;;;;2.30;99.90;;;;;;2048877;28;20400;-71
2021/01/06 01:27:04;;;;;;;;;;;2.20;99.90;;;;;;2049323;28;19910;-70
2021/01/06 01:28:05;;;;;;;;;;;2.30;99.90;;;;;;2048172;28;19910;-71
2021/01/06 01:29:06;;;;;;;;;;;2.30;99.90;;;;;;2050834;28;19941;-71
2021/01/06 01:30:07;;;;;;;;;;;2.30;99.90;;;;;;2056729;28;19981;-70
2021/01/06 01:31:08;;;;;;;;;;;2.30;99.90;;;;;;2055126;28;19906;-71
2021/01/06 01:32:08;;;;;;;;;;;2.30;99.90;;;;;;2049002;28;19918;-70
2021/01/06 01:33:09;;;;;;;;;;;2.30;99.90;;;;;;2048272;28;19998;-70
2021/01/06 01:34:09;;;;;;;;;;;2.30;99.90;;;;;;2048169;29;19910;-70
2021/01/06 01:35:11;;;;;;;;;;;2.30;99.90;;;;;;2047096;28;20103;-71
2021/01/06 01:36:11;;;;;;;;;;;2.30;99.90;;;;;;2044975;28;20001;-70
2021/01/06 01:37:12;;;;;;;;;;;2.30;99.90;;;;;;2049221;28;19989;-70
2021/01/06 01:38:17;;;;;;;;;;;2.30;99.90;;;;;;2048883;28;20409;-70
2021/01/06 01:39:19;;;;;;;;;;;2.30;99.90;;;;;;2048882;28;20335;-71
2021/01/06 01:40:27;;;;;;;;;;;2.30;99.90;;;;;;2049400;28;20410;-71
2021/01/06 01:41:28;;;;;;;;;;;2.30;99.90;;;;;;2048151;28;19910;-70
2021/01/06 01:42:28;;;;;;;;;;;2.30;99.90;;;;;;2047267;28;19918;-70
2021/01/06 01:43:29;;;;;;;;;;;2.30;99.90;;;;;;2048300;28;19970;-70
2021/01/06 01:44:30;;;;;;;;;;;2.40;99.90;;;;;;2040413;29;20264;-70
2021/01/06 01:45:45;;;;;;;;;;;2.40;99.90;;;;;;2040527;29;19915;-70
2021/01/06 01:47:05;;;;;;;;;;;2.40;99.90;;;;;;2045638;29;19906;-71
2021/01/06 01:48:12;;;;;;;;;;;2.40;99.90;;;;;;2044145;28;20326;-69
2021/01/06 01:49:18;;;;;;;;;;;2.40;99.90;;;;;;2047745;28;19997;-70
2021/01/06 01:50:20;;;;;;;;;;;2.40;99.90;;;;;;2046746;29;19922;-70
2021/01/06 01:51:32;;;;;;;;;;;2.40;99.90;;;;;;2048811;28;19957;-70
2021/01/06 01:52:36;;;;;;;;;;;2.40;99.90;;;;;;2045570;28;19910;-71
2021/01/06 01:53:39;;;;;;;;;;;2.40;99.90;;;;;;2048154;28;20606;-70
2021/01/06 01:54:39;;;;;;;;;;;2.40;99.90;;;;;;2055586;28;20460;-70
2021/01/06 01:55:40;;;;;;;;;;;2.40;99.90;;;;;;2048457;29;19910;-69
2021/01/06 01:56:45;;;;;;;;;;;2.40;99.90;;;;;;2037353;29;19907;-71
2021/01/06 01:57:48;;;;;;;;;;;2.50;99.90;;;;;;2040572;29;19941;-70
2021/01/06 01:58:50;;;;;;;;;;;2.50;99.90;;;;;;2047266;29;19910;-71
2021/01/06 01:59:54;;;;;;;;;;;2.40;99.90;;;;;;2047976;28;19906;-70
2021/01/06 02:00:55;;;;;;;;;;;2.40;99.90;;;;;;2043613;29;19910;-70
2021/01/06 02:01:58;;;;;;;;;;;2.40;99.90;;;;;;2044806;28;19914;-70
2021/01/06 02:03:08;;;;;;;;;;;2.40;99.90;;;;;;2048944;28;19914;-69
2021/01/06 02:04:11;;;;;;;;;;;2.40;99.90;;;;;;2048990;28;19958;-70
2021/01/06 02:05:14;;;;;;;;;;;2.40;99.90;;;;;;2048618;28;20437;-69
2021/01/06 02:06:17;;;;;;;;;;;2.40;99.90;;;;;;2048426;29;20027;-69
2021/01/06 02:07:20;;;;;;;;;;;2.50;99.90;;;;;;2048019;28;19906;-70
2021/01/06 02:08:23;;;;;;;;;;;2.40;99.90;;;;;;2048278;28;19918;-70
2021/01/06 02:09:53;;;;;;;;;;;2.40;99.90;;;;;;2048912;28;19958;-70
2021/01/06 02:11:01;;;;;;;;;;;2.40;99.90;;;;;;2039616;28;19921;-70
2021/01/06 02:12:07;;;;;;;;;;;2.40;99.90;;;;;;2041841;29;19912;-70
2021/01/06 02:13:21;;;;;;;;;;;2.40;99.90;;;;;;2040817;29;19913;-70
2021/01/06 02:14:27;;;;;;;;;;;2.40;99.90;;;;;;2040879;29;19967;-70
2021/01/06 02:15:27;;;;;;;;;;;2.40;99.90;;;;;;2047083;28;19985;-70
2021/01/06 02:16:47;;;;;;;;;;;2.40;99.90;;;;;;2046262;28;19910;-70
2021/01/06 02:17:47;;;;;;;;;;;2.40;99.90;;;;;;2043928;28;19962;-70
2021/01/06 02:18:48;;;;;;;;;;;2.40;99.90;;;;;;2047455;29;20414;-70
2021/01/06 02:19:49;;;;;;;;;;;2.40;99.90;;;;;;2048291;28;20442;-70
2021/01/06 02:21:07;;;;;;;;;;;2.40;99.90;;;;;;2047748;28;20005;-70
2021/01/06 02:22:13;;;;;;;;;;;2.40;99.90;;;;;;2048518;28;19917;-70
2021/01/06 02:23:14;;;;;;;;;;;2.40;99.90;;;;;;2048646;28;20025;-70
2021/01/06 02:24:14;;;;;;;;;;;2.40;99.90;;;;;;2042869;28;19906;-70
2021/01/06 02:25:15;;;;;;;;;;;2.40;99.90;;;;;;2040446;28;19907;-70
2021/01/06 02:26:16;;;;;;;;;;;2.30;99.90;;;;;;2043853;28;19907;-70
2021/01/06 02:27:18;;;;;;;;;;;2.30;99.90;;;;;;2054639;28;20005;-70
2021/01/06 02:28:18;;;;;;;;;;;2.30;99.90;;;;;;2056503;28;19914;-70
2021/01/06 02:29:19;;;;;;;;;;;2.30;99.90;;;;;;2050827;28;19906;-69
2021/01/06 02:30:20;;;;;;;;;;;2.30;99.90;;;;;;2048530;28;19922;-69
2021/01/06 02:31:20;;;;;;;;;;;2.30;99.90;;;;;;2047396;29;19914;-70
2021/01/06 02:32:21;;;;;;;;;;;2.40;99.90;;;;;;2039708;29;19997;-70
2021/01/06 02:33:22;;;;;;;;;;;2.40;99.90;;;;;;2047423;29;19910;-69
2021/01/06 02:34:23;;;;;;;;;;;2.40;99.90;;;;;;2040596;29;20419;-70
2021/01/06 02:35:24;;;;;;;;;;;2.40;99.90;;;;;;2056255;28;19906;-69
2021/01/06 02:36:25;;;;;;;;;;;2.40;99.90;;;;;;2050380;28;20319;-69
2021/01/06 02:37:26;;;;;;;;;;;2.40;99.90;;;;;;2047313;28;20009;-69
2021/01/06 02:38:28;;;;;;;;;;;2.40;99.90;;;;;;2040162;29;19907;-70
2021/01/06 02:39:28;;;;;;;;;;;2.40;99.90;;;;;;2047755;28;19918;-69
2021/01/06 02:40:29;;;;;;;;;;;2.40;99.90;;;;;;2048004;28;19925;-70
2021/01/06 02:41:29;;;;;;;;;;;2.30;99.90;;;;;;2050038;28;19906;-70
2021/01/06 02:42:30;;;;;;;;;;;2.30;99.90;;;;;;2054853;28;20377;-70
2021/01/06 02:43:31;;;;;;;;;;;2.20;99.90;;;;;;2041474;29;19915;-69
2021/01/06 02:44:32;;;;;;;;;;;2.20;99.90;;;;;;2041086;29;20005;-70
2021/01/06 02:45:32;;;;;;;;;;;2.20;99.90;;;;;;2048808;28;19914;-70
2021/01/06 02:46:33;;;;;;;;;;;2.10;99.90;;;;;;2042791;28;19914;-70
2021/01/06 02:47:34;;;;;;;;;;;2.00;99.90;;;;;;2053101;28;20566;-70
2021/01/06 02:48:35;;;;;;;;;;;2.00;99.90;;;;;;2055783;28;19984;-69
2021/01/06 02:49:35;;;;;;;;;;;1.90;99.90;;;;;;2047482;29;19906;-70
2021/01/06 02:50:40;;;;;;;;;;;1.80;99.90;;;;;;2047916;29;19914;-69
2021/01/06 02:51:44;;;;;;;;;;;1.80;99.90;;;;;;2048136;28;19907;-69
2021/01/06 02:52:56;;;;;;;;;;;1.70;99.90;;;;;;2048787;28;20051;-70
2021/01/06 02:53:58;;;;;;;;;;;1.60;99.90;;;;;;2040611;29;19907;-69
2021/01/06 02:54:59;;;;;;;;;;;1.60;99.90;;;;;;2050443;28;20618;-69
2021/01/06 02:55:59;;;;;;;;;;;1.50;99.90;;;;;;2056812;28;19965;-70
2021/01/06 02:57:00;;;;;;;;;;;1.50;99.90;;;;;;2050471;28;19934;-70
2021/01/06 02:58:03;;;;;;;;;;;1.50;99.90;;;;;;2048522;28;19910;-68
2021/01/06 02:59:05;;;;;;;;;;;1.50;99.90;;;;;;2047711;28;20412;-69
2021/01/06 03:00:06;;;;;;;;;;;1.40;99.90;;;;;;2047826;29;20009;-70
2021/01/06 03:01:10;;;;;;;;;;;1.40;99.90;;;;;;2048495;28;19988;-70
2021/01/06 03:02:12;;;;;;;;;;;1.40;99.90;;;;;;2048331;28;19997;-70
2021/01/06 03:03:12;;;;;;;;;;;1.30;99.90;;;;;;2047514;28;19910;-69
2021/01/06 03:04:15;;;;;;;;;;;1.30;99.90;;;;;;2048029;29;19969;-70
2021/01/06 03:05:21;;;;;;;;;;;1.40;99.90;;;;;;2044652;28;19910;-71
2021/01/06 03:06:33;;;;;;;;;;;1.40;99.90;;;;;;2048460;28;19906;-70
2021/01/06 03:07:35;;;;;;;;;;;1.30;99.90;;;;;;2048470;28;19946;-70
2021/01/06 03:08:40;;;;;;;;;;;1.30;99.90;;;;;;2047291;28;19989;-70
2021/01/06 03:09:42;;;;;;;;;;;1.30;99.90;;;;;;2048003;29;19961;-69
2021/01/06 03:10:43;;;;;;;;;;;1.20;99.90;;;;;;2047074;28;19958;-70
2021/01/06 03:11:44;;;;;;;;;;;1.20;99.90;;;;;;2037826;29;19918;-70
2021/01/06 03:12:46;;;;;;;;;;;1.10;99.90;;;;;;2034958;29;19911;-71
2021/01/06 03:13:46;;;;;;;;;;;1.10;99.90;;;;;;2043005;28;19906;-69
2021/01/06 03:14:47;;;;;;;;;;;1.10;99.90;;;;;;2048430;28;19913;-70
2021/01/06 03:15:48;;;;;;;;;;;1.00;99.90;;;;;;2047962;28;19910;-70
2021/01/06 03:16:49;;;;;;;;;;;1.00;99.90;;;;;;2048021;28;19918;-69
2021/01/06 03:17:49;;;;;;;;;;;0.90;99.90;;;;;;2047237;29;20438;-70
2021/01/06 03:18:50;;;;;;;;;;;0.90;99.90;;;;;;2047351;28;19957;-70
2021/01/06 03:19:53;;;;;;;;;;;0.80;99.90;;;;;;2047682;28;20453;-70
2021/01/06 03:20:55;;;;;;;;;;;0.80;99.90;;;;;;2047601;29;20026;-70
2021/01/06 03:21:56;;;;;;;;;;;0.70;99.90;;;;;;2045582;28;19916;-70
2021/01/06 03:23:02;;;;;;;;;;;0.70;99.90;;;;;;2048298;28;19913;-71
2021/01/06 03:24:03;;;;;;;;;;;0.70;99.90;;;;;;2050813;28;19969;-70
2021/01/06 03:25:06;;;;;;;;;;;0.60;99.90;;;;;;2047909;28;20375;-70
2021/01/06 03:26:09;;;;;;;;;;;0.60;99.90;;;;;;2047969;28;19949;-69
2021/01/06 03:27:10;;;;;;;;;;;0.60;99.90;;;;;;2049018;28;20021;-69
2021/01/06 03:28:12;;;;;;;;;;;0.50;99.90;;;;;;2048512;28;19921;-69
2021/01/06 03:29:13;;;;;;;;;;;0.50;99.90;;;;;;2046840;28;19907;-70
2021/01/06 03:30:16;;;;;;;;;;;0.50;99.90;;;;;;2039785;29;19997;-70
2021/01/06 03:31:24;;;;;;;;;;;0.50;99.90;;;;;;2047531;29;19934;-70
2021/01/06 03:32:34;;;;;;;;;;;0.40;99.90;;;;;;2048177;28;19906;-69
2021/01/06 03:33:58;;;;;;;;;;;0.40;99.90;;;;;;2043651;28;19953;-70
2021/01/06 03:35:11;;;;;;;;;;;0.50;99.90;;;;;;2039823;29;19930;-70
2021/01/06 03:36:17;;;;;;;;;;;0.50;99.90;;;;;;2053775;28;19917;-71
2021/01/06 03:37:25;;;;;;;;;;;0.60;99.90;;;;;;2048656;28;20378;-70
2021/01/06 03:38:33;;;;;;;;;;;0.50;99.90;;;;;;2039672;29;19914;-70
2021/01/06 03:39:36;;;;;;;;;;;0.50;99.90;;;;;;2043691;28;20346;-70
2021/01/06 03:40:38;;;;;;;;;;;0.60;99.90;;;;;;2047479;28;19921;-70
2021/01/06 03:41:39;;;;;;;;;;;0.60;99.90;;;;;;2047007;28;19910;-69
2021/01/06 03:42:40;;;;;;;;;;;0.60;99.90;;;;;;2044244;28;19907;-70
2021/01/06 03:43:51;;;;;;;;;;;0.70;99.90;;;;;;2040390;29;19910;-70
2021/01/06 03:44:52;;;;;;;;;;;0.70;99.90;;;;;;2043429;29;19907;-71
2021/01/06 03:45:55;;;;;;;;;;;0.60;99.90;;;;;;2048503;28;20398;-70
2021/01/06 03:46:55;;;;;;;;;;;0.60;99.90;;;;;;2047795;28;19969;-70
2021/01/06 03:48:10;;;;;;;;;;;0.60;99.90;;;;;;2045309;28;20021;-70
2021/01/06 03:49:30;;;;;;;;;;;0.60;99.90;;;;;;2049517;28;19953;-70
2021/01/06 03:50:35;;;;;;;;;;;0.50;99.90;;;;;;2048579;28;19915;-70
2021/01/06 03:51:38;;;;;;;;;;;0.50;99.90;;;;;;2052396;28;19942;-70
2021/01/06 03:52:44;;;;;;;;;;;0.50;99.90;;;;;;2048578;28;19926;-71
2021/01/06 03:53:48;;;;;;;;;;;0.60;99.90;;;;;;2050036;28;20018;-71
2021/01/06 03:55:06;;;;;;;;;;;0.60;99.90;;;;;;2045572;29;19933;-71
2021/01/06 03:56:29;;;;;;;;;;;0.60;99.90;;;;;;2048297;28;19914;-71
2021/01/06 03:57:30;;;;;;;;;;;0.60;99.90;;;;;;2046962;28;20005;-70
2021/01/06 03:58:52;;;;;;;;;;;0.70;99.90;;;;;;2045379;28;19906;-71
2021/01/06 03:59:54;;;;;;;;;;;0.80;99.90;;;;;;2040600;29;19911;-71
2021/01/06 04:00:58;;;;;;;;;;;0.80;99.90;;;;;;2036210;29;19911;-71
2021/01/06 04:02:17;;;;;;;;;;;0.90;99.90;;;;;;2044582;28;19911;-70
2021/01/06 04:03:27;;;;;;;;;;;1.00;99.90;;;;;;2046562;29;20437;-71
2021/01/06 04:04:28;;;;;;;;;;;1.10;99.90;;;;;;2048543;28;19914;-71
2021/01/06 04:05:28;;;;;;;;;;;1.20;99.90;;;;;;2048026;28;20285;-71
2021/01/06 04:06:31;;;;;;;;;;;1.40;99.90;;;;;;2048034;28;20298;-71
2021/01/06 04:07:34;;;;;;;;;;;1.50;99.90;;;;;;2042784;29;19989;-71
2021/01/06 04:08:43;;;;;;;;;;;1.60;99.90;;;;;;2047162;28;20446;-71
2021/01/06 04:09:47;;;;;;;;;;;1.70;99.90;;;;;;2038131;29;19907;-71
2021/01/06 04:10:51;;;;;;;;;;;1.70;99.90;;;;;;2043495;28;19910;-71
2021/01/06 04:12:04;;;;;;;;;;;1.70;99.90;;;;;;2053365;28;19906;-70
2021/01/06 04:13:04;;;;;;;;;;;1.70;99.90;;;;;;2047713;29;19970;-70
2021/01/06 04:14:05;;;;;;;;;;;1.70;99.90;;;;;;2045116;29;19907;-71
2021/01/06 04:15:07;;;;;;;;;;;1.70;99.90;;;;;;2047495;29;19907;-70
2021/01/06 04:16:07;;;;;;;;;;;1.70;99.90;;;;;;2051159;28;19910;-70
2021/01/06 04:17:26;;;;;;;;;;;1.80;99.90;;;;;;2051494;28;19916;-70
2021/01/06 04:18:27;;;;;;;;;;;1.80;99.90;;;;;;2054104;28;19906;-70
2021/01/06 04:19:28;;;;;;;;;;;1.80;99.90;;;;;;2039486;29;19952;-70
2021/01/06 04:20:30;;;;;;;;;;;1.90;99.90;;;;;;2041837;29;19914;-70
2021/01/06 04:21:31;;;;;;;;;;;1.90;99.90;;;;;;2034388;29;20001;-70
2021/01/06 04:22:37;;;;;;;;;;;1.90;99.90;;;;;;2046028;28;19910;-70
2021/01/06 04:23:38;;;;;;;;;;;1.80;99.90;;;;;;2046843;28;19948;-70
2021/01/06 04:24:38;;;;;;;;;;;1.70;99.90;;;;;;2039636;29;19958;-70
2021/01/06 04:25:41;;;;;;;;;;;1.60;99.90;;;;;;2042620;29;20568;-70
2021/01/06 04:26:42;;;;;;;;;;;1.50;99.90;;;;;;2047409;29;19906;-70
2021/01/06 04:27:42;;;;;;;;;;;1.40;99.90;;;;;;2047330;29;20006;-70
2021/01/06 04:28:43;;;;;;;;;;;1.30;99.90;;;;;;2045369;28;19907;-70
2021/01/06 04:29:44;;;;;;;;;;;1.30;99.90;;;;;;2038097;29;19907;-70
2021/01/06 04:30:44;;;;;;;;;;;1.20;99.90;;;;;;2038622;29;19915;-70
2021/01/06 04:31:45;;;;;;;;;;;1.20;99.90;;;;;;2031447;29;19917;-71
2021/01/06 04:32:46;;;;;;;;;;;1.20;99.90;;;;;;2043010;29;20639;-70
2021/01/06 04:33:48;;;;;;;;;;;1.20;99.90;;;;;;2048036;28;20382;-70
2021/01/06 04:34:48;;;;;;;;;;;1.20;99.90;;;;;;2047639;28;19910;-70
2021/01/06 04:35:49;;;;;;;;;;;1.20;99.90;;;;;;2046220;28;19906;-71
2021/01/06 04:36:50;;;;;;;;;;;1.20;99.90;;;;;;2040432;29;19993;-71
2021/01/06 04:37:50;;;;;;;;;;;1.20;99.90;;;;;;2043409;29;20005;-70
2021/01/06 04:38:52;;;;;;;;;;;1.20;99.90;;;;;;2045672;28;20382;-71
2021/01/06 04:39:53;;;;;;;;;;;1.10;99.90;;;;;;2047716;28;19929;-71
2021/01/06 04:40:55;;;;;;;;;;;1.10;99.90;;;;;;2052101;28;19914;-71
2021/01/06 04:42:04;;;;;;;;;;;1.00;99.90;;;;;;2040222;29;19913;-71
2021/01/06 04:43:13;;;;;;;;;;;0.90;99.90;;;;;;2047090;29;19915;-71
2021/01/06 04:44:16;;;;;;;;;;;0.90;99.90;;;;;;2047690;29;19929;-71
2021/01/06 04:45:19;;;;;;;;;;;0.80;99.90;;;;;;2047465;29;19913;-71
2021/01/06 04:46:52;;;;;;;;;;;0.80;99.90;;;;;;2047293;28;19906;-71
2021/01/06 04:48:04;;;;;;;;;;;0.70;99.90;;;;;;2035571;29;19907;-71
2021/01/06 04:49:05;;;;;;;;;;;0.70;99.90;;;;;;2045629;28;19918;-72
2021/01/06 04:50:28;;;;;;;;;;;0.60;99.90;;;;;;2050479;28;19936;-72
2021/01/06 04:51:43;;;;;;;;;;;0.60;99.90;;;;;;2043095;28;19965;-72
2021/01/06 04:52:51;;;;;;;;;;;0.50;99.90;;;;;;2047275;29;20309;-72
2021/01/06 04:53:58;;;;;;;;;;;0.40;99.90;;;;;;2040491;29;19958;-73
2021/01/06 04:55:16;;;;;;;;;;;0.40;99.90;;;;;;2043236;29;20578;-72
2021/01/06 04:56:42;;;;;;;;;;;0.40;99.90;;;;;;2047939;28;19906;-74
2021/01/06 04:57:56;;;;;;;;;;;0.30;99.90;;;;;;2048200;28;19964;-71
2021/01/06 04:59:29;;;;;;;;;;;0.30;99.90;;;;;;2039189;29;19907;-72
2021/01/06 05:00:36;;;;;;;;;;;0.20;99.90;;;;;;2018372;29;19994;-70
2021/01/06 05:01:48;;;;;;;;;;;0.20;99.90;;;;;;2030998;29;20528;-72
2021/01/06 05:02:55;;;;;;;;;;;0.10;99.90;;;;;;2033815;29;19974;-72
2021/01/06 05:04:09;;;;;;;;;;;0.10;99.90;;;;;;2046274;29;19934;-70
2021/01/06 05:05:27;;;;;;;;;;;0.10;99.90;;;;;;2048734;28;19963;-73
2021/01/06 05:06:28;;;;;;;;;;;0.00;99.90;;;;;;2050196;28;20397;-71
2021/01/06 05:07:47;;;;;;;;;;;0.00;99.90;;;;;;2048942;28;19953;-71
2021/01/06 05:08:49;;;;;;;;;;;-0.10;99.90;;;;;;2049180;29;20378;-73
2021/01/06 05:09:55;;;;;;;;;;;-0.10;99.90;;;;;;2049800;28;19913;-71
2021/01/06 05:11:11;;;;;;;;;;;-0.20;99.90;;;;;;2042592;28;20040;-71
2021/01/06 05:12:29;;;;;;;;;;;-0.20;99.90;;;;;;2039516;29;19910;-71
2021/01/06 05:13:30;;;;;;;;;;;-0.20;99.90;;;;;;2048239;29;20009;-71
2021/01/06 05:14:34;;;;;;;;;;;-0.20;99.90;;;;;;2049750;28;20393;-71
2021/01/06 05:15:38;;;;;;;;;;;-0.30;99.90;;;;;;2049202;28;20005;-71
2021/01/06 05:16:40;;;;;;;;;;;-0.30;99.90;;;;;;2049503;29;19910;-71
2021/01/06 05:17:41;;;;;;;;;;;-0.30;99.90;;;;;;2049001;28;19998;-72
2021/01/06 05:18:42;;;;;;;;;;;-0.30;99.90;;;;;;2041061;29;19911;-72
2021/01/06 05:19:45;;;;;;;;;;;-0.40;99.90;;;;;;2043270;29;19911;-71
2021/01/06 05:20:45;;;;;;;;;;;-0.40;99.90;;;;;;2035014;29;19907;-71
2021/01/06 05:21:46;;;;;;;;;;;-0.50;99.90;;;;;;2054149;28;19952;-72
2021/01/06 05:22:46;;;;;;;;;;;-0.50;99.90;;;;;;2049321;28;19985;-72
2021/01/06 05:23:49;;;;;;;;;;;-0.50;99.90;;;;;;2054701;28;19906;-73
2021/01/06 05:24:51;;;;;;;;;;;-0.50;99.90;;;;;;2057326;28;19906;-70
2021/01/06 05:25:53;;;;;;;;;;;-0.60;99.90;;;;;;2051736;28;19915;-71
2021/01/06 05:27:08;;;;;;;;;;;-0.60;99.90;;;;;;2041269;29;19914;-72
2021/01/06 05:28:16;;;;;;;;;;;-0.50;99.90;;;;;;2037871;29;19919;-72
2021/01/06 05:29:20;;;;;;;;;;;-0.50;99.90;;;;;;2042832;29;20445;-73
2021/01/06 05:30:23;;;;;;;;;;;-0.50;99.90;;;;;;2055505;28;19914;-71
2021/01/06 05:31:23;;;;;;;;;;;-0.50;99.90;;;;;;2048748;29;19941;-72
2021/01/06 05:32:36;;;;;;;;;;;-0.60;99.90;;;;;;2049063;29;19954;-72
2021/01/06 05:33:54;;;;;;;;;;;-0.60;99.90;;;;;;2050008;28;19910;-72
2021/01/06 05:34:57;;;;;;;;;;;-0.50;99.90;;;;;;2043440;28;19917;-72
2021/01/06 05:35:58;;;;;;;;;;;-0.50;99.90;;;;;;2049923;28;20008;-73
2021/01/06 05:36:59;;;;;;;;;;;-0.50;99.90;;;;;;2049985;28;19911;-73
2021/01/06 05:38:00;;;;;;;;;;;-0.50;99.90;;;;;;2051554;28;19913;-71
2021/01/06 05:39:03;;;;;;;;;;;-0.40;99.90;;;;;;2041316;29;19962;-71
2021/01/06 05:40:06;;;;;;;;;;;-0.40;99.90;;;;;;2041407;29;19907;-72
2021/01/06 05:41:07;;;;;;;;;;;-0.40;99.90;;;;;;2051815;28;19942;-76
2021/01/06 05:42:13;;;;;;;;;;;-0.40;99.90;;;;;;2057311;28;19906;-72
2021/01/06 05:43:17;;;;;;;;;;;-0.30;99.90;;;;;;2046299;28;19949;-73
2021/01/06 05:44:17;;;;;;;;;;;-0.30;99.90;;;;;;2048924;28;19910;-73
2021/01/06 05:45:19;;;;;;;;;;;-0.30;99.90;;;;;;2048779;29;20422;-72
2021/01/06 05:46:28;;;;;;;;;;;-0.20;99.90;;;;;;2049553;28;19910;-73
2021/01/06 05:47:33;;;;;;;;;;;-0.20;99.90;;;;;;2058353;28;20437;-72
2021/01/06 05:48:36;;;;;;;;;;;-0.20;99.90;;;;;;2048796;28;19906;-72
2021/01/06 05:49:37;;;;;;;;;;;-0.10;99.90;;;;;;2041036;29;19990;-71
2021/01/06 05:50:39;;;;;;;;;;;-0.10;99.90;;;;;;2049161;29;19918;-72
2021/01/06 05:51:42;;;;;;;;;;;-0.10;99.90;;;;;;2049296;28;19966;-72
2021/01/06 05:52:44;;;;;;;;;;;0.00;99.90;;;;;;2049828;28;19914;-72
2021/01/06 05:53:54;;;;;;;;;;;0.00;99.90;;;;;;2048521;28;20013;-74
2021/01/06 05:54:55;;;;;;;;;;;0.00;99.90;;;;;;2040509;29;19953;-73
2021/01/06 05:55:56;;;;;;;;;;;0.20;99.90;;;;;;2038910;29;19911;-72
2021/01/06 05:57:16;;;;;;;;;;;0.20;99.90;;;;;;2040837;29;19985;-72
2021/01/06 05:58:33;;;;;;;;;;;0.30;99.90;;;;;;2051368;28;19906;-74
2021/01/06 06:00:00;;;;;;;;;;;0.30;99.90;;;;;;2054699;28;19993;-73
2021/01/06 06:01:21;;;;;;;;;;;0.40;99.90;;;;;;2045213;29;19950;-72
2021/01/06 06:02:28;;;;;;;;;;;0.40;99.90;;;;;;2048438;28;19907;-72
2021/01/06 06:03:32;;;;;;;;;;;0.40;99.90;;;;;;2043966;29;20036;-73
2021/01/06 06:04:41;;;;;;;;;;;0.40;99.90;;;;;;2046893;29;20575;-73
2021/01/06 06:05:42;;;;;;;;;;;0.40;99.90;;;;;;2048461;28;19910;-72
2021/01/06 06:07:11;;;;;;;;;;;0.40;99.90;;;;;;2047389;29;19911;-72
2021/01/06 06:08:47;;;;;;;;;;;0.40;99.90;;;;;;2036806;29;19993;-72
2021/01/06 06:10:04;;;;;;;;;;;0.40;99.90;;;;;;2032685;29;20031;-72
2021/01/06 06:11:16;;;;;;;;;;;0.40;99.90;;;;;;2026182;29;19920;-72
2021/01/06 06:12:37;;;;;;;;;;;0.40;99.90;;;;;;2035190;29;19907;-72
2021/01/06 06:13:43;;;;;;;;;;;0.50;99.90;;;;;;2029733;29;19907;-72
2021/01/06 06:14:47;;;;;;;;;;;0.40;99.90;;;;;;2039155;29;19911;-73
2021/01/06 06:15:51;;;;;;;;;;;0.40;99.90;;;;;;2054717;28;20266;-73
2021/01/06 06:17:24;;;;;;;;;;;0.40;99.90;;;;;;2047646;28;19985;-73
2021/01/06 06:18:28;;;;;;;;;;;0.40;99.90;;;;;;2029337;29;20489;-72
2021/01/06 06:19:37;;;;;;;;;;;0.50;99.90;;;;;;2051411;28;19914;-71